Time;durP1;ratioP1;P1;durP2;ratioP2;P2;SDS_P1;SDS_P2;PMS_P1;PMS_P2;Temp;Humidity;BMP_temperature;BMP_pressure;BME280_temperature;BME280_humidity;BME280_pressure;Samples;Min_cycle;Max_cycle;Signal;HPM_P1;HPM_P2
2023/09/23 00:01:04;;;;;;;12.40;1.63;;;10.70;99.90;;;;;;5090258;28;20415;-57
2023/09/23 00:03:33;;;;;;;6.47;1.52;;;10.70;99.90;;;;;;5098572;27;20043;-56
2023/09/23 00:06:03;;;;;;;6.93;2.50;;;10.70;99.90;;;;;;5113732;27;20498;-57
2023/09/23 00:08:31;;;;;;;8.93;1.88;;;10.70;99.90;;;;;;5103822;27;20048;-57
2023/09/23 00:10:59;;;;;;;7.72;2.13;;;10.80;99.90;;;;;;5108710;28;20043;-57
2023/09/23 00:13:27;;;;;;;10.68;1.42;;;10.80;99.90;;;;;;5103285;28;20043;-57
2023/09/23 00:15:56;;;;;;;9.43;1.92;;;10.80;99.90;;;;;;5106266;28;20054;-56
2023/09/23 00:18:24;;;;;;;2.92;1.13;;;10.80;99.90;;;;;;5109902;28;20046;-56
2023/09/23 00:20:51;;;;;;;9.65;1.92;;;10.80;99.90;;;;;;5110207;28;20050;-57
2023/09/23 00:23:20;;;;;;;4.93;1.63;;;10.70;99.90;;;;;;5107845;27;20048;-57
2023/09/23 00:25:49;;;;;;;6.60;1.45;;;10.70;99.90;;;;;;5109728;28;20056;-57
2023/09/23 00:28:17;;;;;;;9.30;1.65;;;10.70;99.90;;;;;;5109737;28;20058;-57
2023/09/23 00:30:45;;;;;;;8.48;1.50;;;10.70;99.90;;;;;;5108925;28;20054;-57
2023/09/23 00:33:16;;;;;;;8.55;1.60;;;10.70;99.90;;;;;;5107687;28;20497;-57
2023/09/23 00:35:47;;;;;;;3.90;1.25;;;10.80;99.90;;;;;;5114766;27;20039;-57
2023/09/23 00:38:17;;;;;;;6.97;1.75;;;10.80;99.90;;;;;;5107531;28;20039;-57
2023/09/23 00:40:45;;;;;;;5.95;1.35;;;10.80;99.90;;;;;;5099653;28;20403;-57
2023/09/23 00:43:13;;;;;;;13.48;1.60;;;10.80;99.90;;;;;;5112792;27;20482;-57
2023/09/23 00:45:48;;;;;;;5.75;1.40;;;10.80;99.90;;;;;;5110192;27;20395;-57
2023/09/23 00:48:20;;;;;;;5.13;1.55;;;10.90;99.90;;;;;;5109231;28;20475;-56
2023/09/23 00:50:50;;;;;;;8.15;1.40;;;10.90;99.90;;;;;;5108128;28;20475;-57
2023/09/23 00:53:20;;;;;;;10.02;2.65;;;10.90;99.90;;;;;;5104980;27;20043;-57
2023/09/23 00:55:52;;;;;;;9.50;1.55;;;10.90;99.90;;;;;;5115771;27;20047;-57
2023/09/23 00:58:21;;;;;;;8.80;1.88;;;10.90;99.90;;;;;;5115468;27;20054;-57
2023/09/23 01:00:51;;;;;;;4.10;1.30;;;10.80;99.90;;;;;;5128229;27;20058;-57
2023/09/23 01:03:19;;;;;;;6.65;1.42;;;10.80;99.90;;;;;;5112587;27;20044;-57
2023/09/23 01:05:49;;;;;;;5.20;1.30;;;10.80;99.90;;;;;;5125839;27;20065;-57
2023/09/23 01:08:20;;;;;;;8.30;1.40;;;10.80;99.90;;;;;;5119895;27;20502;-57
2023/09/23 01:10:49;;;;;;;11.60;1.77;;;10.70;99.90;;;;;;5097660;28;20222;-56
2023/09/23 01:13:23;;;;;;;5.22;1.63;;;10.70;99.90;;;;;;5113745;27;20494;-57
2023/09/23 01:15:51;;;;;;;5.25;1.30;;;10.70;99.90;;;;;;5128131;27;20058;-57
2023/09/23 01:18:20;;;;;;;8.25;1.30;;;10.70;99.90;;;;;;5120724;27;20047;-57
2023/09/23 01:20:49;;;;;;;6.68;1.45;;;10.70;99.90;;;;;;5107649;28;20063;-57
2023/09/23 01:23:17;;;;;;;5.47;2.27;;;10.70;99.90;;;;;;5108200;28;20048;-57
2023/09/23 01:25:45;;;;;;;6.30;1.45;;;10.60;99.90;;;;;;5107198;28;20044;-57
2023/09/23 01:28:13;;;;;;;8.40;2.35;;;10.70;99.90;;;;;;5107784;28;20046;-57
2023/09/23 01:30:43;;;;;;;7.00;1.50;;;10.60;99.90;;;;;;5102475;28;20050;-57
2023/09/23 01:33:14;;;;;;;5.13;1.00;;;10.60;99.90;;;;;;5089690;28;20066;-57
2023/09/23 01:35:42;;;;;;;10.10;1.70;;;10.50;99.90;;;;;;5112978;27;20047;-57
2023/09/23 01:38:10;;;;;;;4.50;0.88;;;10.60;99.90;;;;;;5127230;27;20040;-57
2023/09/23 01:40:39;;;;;;;5.65;1.80;;;10.60;99.90;;;;;;5109928;28;20135;-57
2023/09/23 01:43:10;;;;;;;11.77;1.58;;;10.60;99.90;;;;;;5110813;28;20036;-57
2023/09/23 01:45:38;;;;;;;8.73;1.80;;;10.60;99.90;;;;;;5110896;28;20039;-57
2023/09/23 01:48:07;;;;;;;10.30;1.50;;;10.60;99.90;;;;;;5100573;28;20040;-57
2023/09/23 01:50:35;;;;;;;5.57;1.45;;;10.60;99.90;;;;;;5107554;28;20052;-56
2023/09/23 01:53:04;;;;;;;6.95;1.98;;;10.60;99.90;;;;;;5110487;28;20036;-56
2023/09/23 01:55:32;;;;;;;9.98;1.60;;;10.60;99.90;;;;;;5110361;28;20418;-57
2023/09/23 01:58:03;;;;;;;3.95;1.13;;;10.60;99.90;;;;;;5109717;28;20042;-57
2023/09/23 02:00:36;;;;;;;14.27;1.55;;;10.60;99.90;;;;;;5110270;28;20054;-57
2023/09/23 02:03:04;;;;;;;4.75;1.23;;;10.60;99.90;;;;;;5111488;28;20039;-57
2023/09/23 02:05:32;;;;;;;7.43;1.70;;;10.60;99.90;;;;;;5108874;28;20039;-57
2023/09/23 02:08:03;;;;;;;7.82;1.60;;;10.60;99.90;;;;;;5105793;28;20050;-57
2023/09/23 02:10:30;;;;;;;8.60;2.35;;;10.60;99.90;;;;;;5114512;28;20055;-58
2023/09/23 02:12:58;;;;;;;6.18;1.45;;;10.60;99.90;;;;;;5107966;28;20036;-57
2023/09/23 02:15:27;;;;;;;6.03;1.45;;;10.60;99.90;;;;;;5102890;28;20044;-57
2023/09/23 02:17:54;;;;;;;8.05;1.17;;;10.60;99.90;;;;;;5090918;28;20433;-57
2023/09/23 02:20:22;;;;;;;6.60;1.20;;;10.60;99.90;;;;;;5106663;28;20627;-57
2023/09/23 02:22:54;;;;;;;10.52;1.60;;;10.60;99.90;;;;;;5105983;28;20058;-57
2023/09/23 02:25:26;;;;;;;8.25;1.35;;;10.60;99.90;;;;;;5103286;28;20051;-57
2023/09/23 02:27:57;;;;;;;7.35;1.77;;;10.60;99.90;;;;;;5106985;28;20046;-57
2023/09/23 02:30:25;;;;;;;7.25;1.10;;;10.60;99.90;;;;;;5106940;28;20055;-57
2023/09/23 02:32:53;;;;;;;9.60;1.33;;;10.60;99.90;;;;;;5107968;28;20059;-57
2023/09/23 02:35:21;;;;;;;5.22;1.65;;;10.60;99.90;;;;;;5114950;28;20043;-57
2023/09/23 02:37:50;;;;;;;6.68;1.17;;;10.60;99.90;;;;;;5126768;28;20047;-58
2023/09/23 02:40:20;;;;;;;5.82;1.25;;;10.60;99.90;;;;;;5113651;28;20039;-57
2023/09/23 02:42:53;;;;;;;11.32;1.10;;;10.60;99.90;;;;;;5107885;28;20051;-57
2023/09/23 02:45:22;;;;;;;9.25;1.38;;;10.50;99.90;;;;;;5106594;28;20399;-57
2023/09/23 02:47:49;;;;;;;9.30;1.40;;;10.50;99.90;;;;;;5104347;28;20040;-57
2023/09/23 02:50:17;;;;;;;9.85;1.58;;;10.50;99.90;;;;;;5102598;28;20047;-57
2023/09/23 02:52:48;;;;;;;8.95;1.40;;;10.60;99.90;;;;;;5090084;28;20058;-57
2023/09/23 02:55:20;;;;;;;5.55;1.13;;;10.60;99.90;;;;;;5110400;28;20043;-57
2023/09/23 02:57:49;;;;;;;10.23;1.65;;;10.60;99.90;;;;;;5110164;28;20039;-57
2023/09/23 03:00:21;;;;;;;8.65;1.42;;;10.60;99.90;;;;;;5105355;28;20059;-57
2023/09/23 03:02:57;;;;;;;10.73;1.30;;;10.60;99.90;;;;;;5111192;28;20039;-57
2023/09/23 03:05:31;;;;;;;6.32;1.33;;;10.60;99.90;;;;;;5115326;27;20058;-57
2023/09/23 03:08:01;;;;;;;8.93;1.50;;;10.60;99.90;;;;;;5121287;27;20043;-58
2023/09/23 03:10:39;;;;;;;6.50;1.33;;;10.60;99.90;;;;;;5110832;28;20065;-57
2023/09/23 03:13:10;;;;;;;4.47;1.10;;;10.60;99.90;;;;;;5110370;28;20510;-56
2023/09/23 03:15:44;;;;;;;;;;;10.60;99.90;;;;;;5110903;28;20047;-57
2023/09/23 03:18:15;;;;;;;10.02;1.35;;;10.60;99.90;;;;;;5115464;27;19934;-57
2023/09/23 03:20:44;;;;;;;11.90;2.35;;;10.50;99.90;;;;;;5112720;27;20043;-57
2023/09/23 03:23:12;;;;;;;8.32;1.35;;;10.50;99.90;;;;;;5108000;28;20043;-57
2023/09/23 03:25:45;;;;;;;12.23;1.58;;;10.40;99.90;;;;;;5109750;28;20040;-57
2023/09/23 03:28:16;;;;;;;9.00;1.38;;;10.40;99.90;;;;;;5109555;28;20051;-57
2023/09/23 03:30:50;;;;;;;7.90;1.05;;;10.40;99.90;;;;;;5109391;28;20047;-57
2023/09/23 03:33:21;;;;;;;5.40;1.63;;;10.30;99.90;;;;;;5110841;28;20050;-57
2023/09/23 03:35:50;;;;;;;8.07;1.20;;;10.30;99.90;;;;;;5122511;27;20390;-57
2023/09/23 03:38:18;;;;;;;14.35;1.73;;;10.30;99.90;;;;;;5131174;27;20035;-57
2023/09/23 03:40:53;;;;;;;13.10;1.60;;;10.20;99.90;;;;;;5114071;27;20063;-57
2023/09/23 03:43:24;;;;;;;13.10;1.30;;;10.20;99.90;;;;;;5109435;28;20047;-57
2023/09/23 03:45:52;;;;;;;9.18;1.65;;;10.20;99.90;;;;;;5110238;28;20047;-57
2023/09/23 03:48:21;;;;;;;11.52;1.30;;;10.10;99.90;;;;;;5108270;27;20364;-57
2023/09/23 03:50:52;;;;;;;4.72;1.38;;;10.00;99.90;;;;;;5109275;28;20040;-57
2023/09/23 03:53:21;;;;;;;11.25;1.88;;;10.00;99.90;;;;;;5110164;28;20055;-57
2023/09/23 03:55:53;;;;;;;5.75;1.52;;;10.00;99.90;;;;;;5106721;28;20043;-56
2023/09/23 03:58:21;;;;;;;6.07;1.58;;;9.90;99.90;;;;;;5094607;28;20052;-57
2023/09/23 04:00:49;;;;;;;7.72;1.67;;;9.90;99.90;;;;;;5111957;28;20047;-56
2023/09/23 04:03:17;;;;;;;13.32;1.98;;;9.90;99.90;;;;;;5112862;28;20051;-56
2023/09/23 04:05:58;;;;;;;11.68;2.13;;;9.80;99.90;;;;;;5116432;27;20036;-56
2023/09/23 04:08:27;;;;;;;15.82;2.38;;;9.80;99.90;;;;;;5112482;28;20075;-56
2023/09/23 04:10:55;;;;;;;9.73;1.50;;;9.70;99.90;;;;;;5112267;28;20047;-56
2023/09/23 04:13:23;;;;;;;11.95;2.67;;;9.70;99.90;;;;;;5112444;28;20040;-56
2023/09/23 04:15:53;;;;;;;15.18;1.95;;;9.70;99.90;;;;;;5112360;28;20040;-56
2023/09/23 04:18:20;;;;;;;10.18;1.67;;;9.60;99.90;;;;;;5110548;28;20050;-56
2023/09/23 04:20:49;;;;;;;6.05;1.40;;;9.60;99.90;;;;;;5113283;28;20047;-56
2023/09/23 04:23:17;;;;;;;11.73;1.70;;;9.50;99.90;;;;;;5113418;28;20043;-56
2023/09/23 04:25:45;;;;;;;7.57;1.85;;;9.50;99.90;;;;;;5111766;28;20058;-57
2023/09/23 04:28:12;;;;;;;7.78;1.98;;;9.50;99.90;;;;;;5111890;28;20044;-57
2023/09/23 04:30:40;;;;;;;10.18;1.70;;;9.40;99.90;;;;;;5113398;28;20047;-57
2023/09/23 04:33:08;;;;;;;12.98;1.65;;;9.40;99.90;;;;;;5112377;28;20492;-56
2023/09/23 04:35:36;;;;;;;13.15;1.92;;;9.40;99.90;;;;;;5122278;27;20062;-56
2023/09/23 04:38:04;;;;;;;10.75;2.03;;;9.40;99.90;;;;;;5112984;28;20058;-56
2023/09/23 04:40:32;;;;;;;14.77;1.83;;;9.30;99.90;;;;;;5112802;28;20483;-56
2023/09/23 04:43:00;;;;;;;9.13;1.70;;;9.30;99.90;;;;;;5111557;28;20039;-57
2023/09/23 04:45:27;;;;;;;12.77;1.88;;;9.20;99.90;;;;;;5112230;28;20047;-57
2023/09/23 04:47:55;;;;;;;12.82;1.75;;;9.20;99.90;;;;;;5101356;27;20058;-57
2023/09/23 04:50:24;;;;;;;8.05;1.73;;;9.10;99.90;;;;;;5087919;28;20044;-57
2023/09/23 04:52:51;;;;;;;9.88;1.65;;;9.10;99.90;;;;;;5093968;28;20055;-57
2023/09/23 04:55:20;;;;;;;10.02;2.05;;;9.00;99.90;;;;;;5109087;28;20047;-57
2023/09/23 04:57:48;;;;;;;8.35;1.73;;;9.00;99.90;;;;;;5105817;27;20050;-57
2023/09/23 05:00:18;;;;;;;11.63;1.65;;;8.90;99.90;;;;;;5129429;27;20073;-57
2023/09/23 05:02:49;;;;;;;;;;;8.90;99.90;;;;;;5105578;27;20075;-57
2023/09/23 05:05:19;;;;;;;12.82;2.05;;;8.90;99.90;;;;;;5108660;27;19923;-56
2023/09/23 05:07:47;;;;;;;7.20;2.35;;;8.80;99.90;;;;;;5111063;27;20427;-56
2023/09/23 05:10:15;;;;;;;11.23;1.90;;;8.80;99.90;;;;;;5105943;28;20043;-56
2023/09/23 05:12:44;;;;;;;11.55;1.85;;;8.70;99.90;;;;;;5105746;28;20395;-57
2023/09/23 05:15:14;;;;;;;9.15;2.08;;;8.70;99.90;;;;;;5105827;28;20130;-57
2023/09/23 05:17:43;;;;;;;12.00;1.88;;;8.70;99.90;;;;;;5101462;28;20040;-57
2023/09/23 05:20:15;;;;;;;9.07;2.00;;;8.70;99.90;;;;;;5084526;28;20400;-57
2023/09/23 05:22:43;;;;;;;10.73;2.78;;;8.70;99.90;;;;;;5088584;28;20298;-57
2023/09/23 05:25:14;;;;;;;13.02;2.25;;;8.70;99.90;;;;;;5102172;28;20039;-57
2023/09/23 05:27:44;;;;;;;8.45;1.77;;;8.70;99.90;;;;;;5105441;27;20050;-57
2023/09/23 05:30:12;;;;;;;15.05;2.00;;;8.60;99.90;;;;;;5105006;28;20054;-56
2023/09/23 05:32:43;;;;;;;10.52;1.83;;;8.60;99.90;;;;;;5104543;28;20069;-57
2023/09/23 05:35:11;;;;;;;13.65;2.17;;;8.60;99.90;;;;;;5112320;27;20043;-56
2023/09/23 05:37:40;;;;;;;11.15;2.58;;;8.60;99.90;;;;;;5113369;27;20050;-56
2023/09/23 05:40:10;;;;;;;11.65;2.05;;;8.60;99.90;;;;;;5092423;28;20364;-56
2023/09/23 05:42:38;;;;;;;9.85;1.90;;;8.60;99.90;;;;;;5086706;28;20055;-56
2023/09/23 05:45:06;;;;;;;12.13;1.75;;;8.50;99.90;;;;;;5124642;27;20057;-56
2023/09/23 05:47:36;;;;;;;15.43;2.17;;;8.50;99.90;;;;;;5120333;27;20051;-56
2023/09/23 05:50:05;;;;;;;12.30;2.30;;;8.50;99.90;;;;;;5084745;28;20062;-56
2023/09/23 05:52:35;;;;;;;10.82;2.00;;;8.40;99.90;;;;;;5103359;28;20039;-56
2023/09/23 05:55:07;;;;;;;11.18;2.45;;;8.40;99.90;;;;;;5125956;28;20476;-56
2023/09/23 05:57:40;;;;;;;11.05;2.38;;;8.40;99.90;;;;;;5107827;28;20043;-56
2023/09/23 06:00:10;;;;;;;11.25;2.70;;;8.40;99.90;;;;;;5084489;28;20122;-56
2023/09/23 06:02:38;;;;;;;9.30;2.13;;;8.40;99.90;;;;;;5084592;28;20476;-56
2023/09/23 06:05:07;;;;;;;7.93;2.35;;;8.40;99.90;;;;;;5099839;28;20051;-56
2023/09/23 06:07:34;;;;;;;10.68;2.00;;;8.30;99.90;;;;;;5113285;28;20043;-56
2023/09/23 06:10:04;;;;;;;10.07;1.88;;;8.40;99.90;;;;;;5102698;28;20118;-56
2023/09/23 06:12:32;;;;;;;7.07;1.75;;;8.40;99.90;;;;;;5104999;28;20467;-56
2023/09/23 06:15:02;;;;;;;13.90;2.30;;;8.30;99.90;;;;;;5084758;28;20044;-56
2023/09/23 06:17:32;;;;;;;12.00;2.08;;;8.30;99.90;;;;;;5089336;28;20066;-56
2023/09/23 06:20:00;;;;;;;10.25;1.90;;;8.40;99.90;;;;;;5099223;28;20032;-56
2023/09/23 06:22:28;;;;;;;7.93;1.85;;;8.30;99.90;;;;;;5103631;28;20598;-56
2023/09/23 06:24:58;;;;;;;10.30;1.98;;;8.40;99.90;;;;;;5096275;28;20044;-56
2023/09/23 06:27:25;;;;;;;7.78;1.83;;;8.40;99.90;;;;;;5087030;28;20047;-56
2023/09/23 06:29:54;;;;;;;9.65;1.83;;;8.50;99.90;;;;;;5108225;28;20039;-56
2023/09/23 06:32:21;;;;;;;7.45;2.35;;;8.50;99.90;;;;;;5107879;28;20051;-56
2023/09/23 06:34:49;;;;;;;12.90;2.38;;;8.60;99.90;;;;;;5106746;27;20047;-56
2023/09/23 06:37:17;;;;;;;7.13;2.42;;;8.70;99.90;;;;;;5106410;27;20046;-56
2023/09/23 06:39:45;;;;;;;11.27;2.63;;;8.80;99.90;;;;;;5108408;28;20682;-56
2023/09/23 06:42:13;;;;;;;16.50;2.20;;;8.90;99.90;;;;;;5108796;28;20044;-56
2023/09/23 06:44:42;;;;;;;9.07;1.77;;;9.00;99.90;;;;;;5108069;28;20043;-56
2023/09/23 06:47:09;;;;;;;9.55;1.83;;;9.10;99.90;;;;;;5107971;28;20047;-56
2023/09/23 06:49:38;;;;;;;5.35;1.52;;;9.10;99.90;;;;;;5095533;28;20337;-57
2023/09/23 06:52:06;;;;;;;10.05;1.52;;;9.20;99.90;;;;;;5095301;28;20074;-56
2023/09/23 06:54:34;;;;;;;11.40;1.83;;;9.20;99.90;;;;;;5107672;28;20056;-56
2023/09/23 06:57:02;;;;;;;5.35;1.77;;;9.30;99.90;;;;;;5099210;28;20055;-56
2023/09/23 06:59:30;;;;;;;11.18;2.00;;;9.30;99.90;;;;;;5108011;28;20129;-56
2023/09/23 07:01:58;;;;;;;8.00;2.05;;;9.40;99.90;;;;;;5106591;28;20055;-57
2023/09/23 07:04:26;;;;;;;14.75;2.03;;;9.50;99.90;;;;;;5096959;27;20048;-56
2023/09/23 07:06:54;;;;;;;10.23;2.22;;;9.60;99.90;;;;;;5116986;27;20066;-56
2023/09/23 07:09:21;;;;;;;12.05;2.35;;;9.70;99.90;;;;;;5106672;28;20051;-56
2023/09/23 07:11:49;;;;;;;8.02;1.67;;;9.80;99.90;;;;;;5107065;28;20066;-56
2023/09/23 07:14:17;;;;;;;10.80;2.25;;;9.80;99.90;;;;;;5122149;27;20047;-57
2023/09/23 07:16:44;;;;;;;8.65;1.73;;;9.90;99.90;;;;;;5128249;27;20051;-56
2023/09/23 07:19:13;;;;;;;9.32;1.92;;;10.00;99.90;;;;;;5102533;27;20044;-57
2023/09/23 07:21:40;;;;;;;7.53;1.63;;;10.10;99.90;;;;;;5101643;28;20039;-56
2023/09/23 07:24:08;;;;;;;13.48;2.00;;;10.10;99.90;;;;;;5104328;28;20865;-56
2023/09/23 07:26:40;;;;;;;9.65;1.75;;;10.20;99.90;;;;;;5096017;28;20402;-57
2023/09/23 07:29:07;;;;;;;10.68;1.45;;;10.20;99.90;;;;;;5102229;27;20063;-57
2023/09/23 07:31:35;;;;;;;13.20;2.45;;;10.30;99.90;;;;;;5087166;28;20040;-57
2023/09/23 07:34:04;;;;;;;11.23;1.73;;;10.30;99.90;;;;;;5093592;27;20522;-57
2023/09/23 07:36:32;;;;;;;6.80;2.50;;;10.40;99.90;;;;;;5123050;27;20043;-56
2023/09/23 07:39:03;;;;;;;6.10;2.47;;;10.50;99.90;;;;;;5104255;27;20055;-56
2023/09/23 07:41:30;;;;;;;15.90;2.30;;;10.50;99.90;;;;;;5094969;28;20047;-56
2023/09/23 07:43:58;;;;;;;7.35;1.55;;;10.60;99.90;;;;;;5095333;28;20063;-56
2023/09/23 07:46:26;;;;;;;7.40;1.60;;;10.70;99.90;;;;;;5088214;28;20047;-56
2023/09/23 07:48:54;;;;;;;8.13;1.10;;;10.80;99.90;;;;;;5103160;28;20765;-57
2023/09/23 07:51:21;;;;;;;9.55;1.60;;;10.90;99.90;;;;;;5101820;28;20039;-56
2023/09/23 07:53:52;;;;;;;8.18;1.45;;;11.00;99.90;;;;;;5114440;27;20054;-56
2023/09/23 07:56:20;;;;;;;15.77;1.60;;;11.20;99.90;;;;;;5127207;27;20043;-56
2023/09/23 07:58:47;;;;;;;11.35;2.22;;;11.30;99.90;;;;;;5111228;27;20051;-57
2023/09/23 08:01:16;;;;;;;6.28;1.27;;;11.40;99.90;;;;;;5094289;28;20062;-57
2023/09/23 08:03:44;;;;;;;4.82;1.63;;;11.50;99.90;;;;;;5102078;27;20035;-56
2023/09/23 08:06:13;;;;;;;10.82;1.30;;;11.70;99.90;;;;;;5116453;27;20387;-56
2023/09/23 08:08:40;;;;;;;7.30;1.10;;;11.80;99.90;;;;;;5103172;27;20066;-57
2023/09/23 08:11:08;;;;;;;6.72;1.10;;;11.90;99.90;;;;;;5087888;28;20055;-57
2023/09/23 08:13:37;;;;;;;5.30;0.93;;;12.00;99.90;;;;;;5104615;28;20043;-57
2023/09/23 08:16:04;;;;;;;7.90;1.40;;;12.10;99.90;;;;;;5105907;28;20051;-56
2023/09/23 08:18:33;;;;;;;6.25;0.93;;;12.20;99.90;;;;;;5105085;28;20044;-57
2023/09/23 08:21:01;;;;;;;6.05;0.90;;;12.30;99.90;;;;;;5104718;27;20050;-56
2023/09/23 08:23:29;;;;;;;10.10;1.38;;;12.30;99.90;;;;;;5101987;28;20545;-56
2023/09/23 08:25:57;;;;;;;6.22;1.00;;;12.40;99.90;;;;;;5103580;28;20048;-56
2023/09/23 08:28:24;;;;;;;9.02;1.40;;;12.30;99.90;;;;;;5113403;27;20046;-57
2023/09/23 08:30:52;;;;;;;8.73;1.15;;;12.40;99.90;;;;;;5105373;28;20359;-56
2023/09/23 08:33:20;;;;;;;7.18;0.95;;;12.40;99.90;;;;;;5111018;27;20043;-57
2023/09/23 08:35:48;;;;;;;6.15;1.10;;;12.50;99.90;;;;;;5112978;27;20066;-57
2023/09/23 08:38:16;;;;;;;5.50;1.20;;;12.50;99.90;;;;;;5106262;28;20044;-57
2023/09/23 08:40:45;;;;;;;8.10;1.17;;;12.60;99.90;;;;;;5104963;28;20052;-57
2023/09/23 08:43:13;;;;;;;5.05;1.50;;;12.70;99.90;;;;;;5091536;27;20391;-56
2023/09/23 08:45:46;;;;;;;11.32;1.38;;;12.70;99.90;;;;;;5101555;28;20059;-56
2023/09/23 08:48:17;;;;;;;7.72;1.10;;;12.80;99.90;;;;;;5104485;28;20047;-57
2023/09/23 08:50:46;;;;;;;6.40;1.30;;;12.80;99.90;;;;;;5086150;28;20040;-56
2023/09/23 08:53:17;;;;;;;10.20;1.10;;;12.80;99.90;;;;;;5092973;28;20125;-56
2023/09/23 08:55:47;;;;;;;6.72;1.25;;;12.80;99.90;;;;;;5095202;28;20502;-57
2023/09/23 08:58:15;;;;;;;7.88;1.10;;;12.80;99.90;;;;;;5094748;28;20642;-57
2023/09/23 09:00:46;;;;;;;10.70;1.40;;;12.80;99.90;;;;;;5085589;28;20040;-57
2023/09/23 09:03:14;;;;;;;5.90;1.73;;;12.80;99.90;;;;;;5104228;28;20051;-57
2023/09/23 09:05:43;;;;;;;11.60;2.05;;;12.80;99.90;;;;;;5083223;28;20659;-57
2023/09/23 09:08:12;;;;;;;9.18;1.33;;;12.80;99.90;;;;;;5088697;28;20059;-56
2023/09/23 09:10:41;;;;;;;10.30;2.30;;;12.80;99.90;;;;;;5102806;28;20058;-57
2023/09/23 09:13:08;;;;;;;9.63;1.27;;;12.90;99.90;;;;;;5108530;28;20414;-56
2023/09/23 09:15:37;;;;;;;10.18;1.60;;;12.90;99.90;;;;;;5107735;28;20059;-56
2023/09/23 09:18:06;;;;;;;13.80;1.80;;;13.00;99.90;;;;;;5107434;28;20631;-57
2023/09/23 09:20:33;;;;;;;10.43;2.45;;;13.00;99.90;;;;;;5104747;28;20040;-57
2023/09/23 09:23:01;;;;;;;6.22;1.42;;;13.00;99.90;;;;;;5110065;27;20050;-57
2023/09/23 09:25:31;;;;;;;10.13;1.40;;;13.10;99.90;;;;;;5129351;27;20051;-57
2023/09/23 09:28:02;;;;;;;7.82;1.30;;;13.20;99.90;;;;;;5121877;27;20046;-57
2023/09/23 09:30:31;;;;;;;9.93;1.08;;;13.30;99.90;;;;;;5108805;28;20051;-57
2023/09/23 09:33:01;;;;;;;9.15;1.58;;;13.30;99.90;;;;;;5110588;27;20058;-57
2023/09/23 09:35:33;;;;;;;5.03;2.08;;;13.40;99.90;;;;;;5110932;27;20063;-57
2023/09/23 09:38:05;;;;;;;;;;;13.40;99.90;;;;;;5101517;28;20047;-56
2023/09/23 09:40:46;;;;;;;10.45;2.88;;;13.50;99.90;;;;;;5108596;28;19935;-57
2023/09/23 09:43:14;;;;;;;7.43;2.20;;;13.50;99.90;;;;;;5112375;27;20051;-57
2023/09/23 09:45:44;;;;;;;4.47;1.38;;;13.60;99.90;;;;;;5110265;27;20307;-57
2023/09/23 09:48:14;;;;;;;7.88;3.17;;;13.70;99.90;;;;;;5103322;28;20047;-57
2023/09/23 09:50:43;;;;;;;8.10;1.55;;;13.80;99.90;;;;;;5103984;28;20044;-57
2023/09/23 09:53:13;;;;;;;5.53;1.27;;;13.90;99.90;;;;;;5108020;28;20114;-56
2023/09/23 09:55:41;;;;;;;12.60;2.07;;;13.90;99.90;;;;;;5108836;28;20047;-57
2023/09/23 09:58:08;;;;;;;6.78;1.70;;;14.10;99.90;;;;;;5108392;28;20295;-57
2023/09/23 10:00:43;;;;;;;9.98;2.60;;;14.30;99.90;;;;;;5106716;28;20043;-58
2023/09/23 10:03:12;;;;;;;5.28;1.35;;;14.50;99.90;;;;;;5100277;28;20043;-57
2023/09/23 10:05:46;;;;;;;6.40;1.15;;;14.80;99.90;;;;;;5103387;27;20048;-57
2023/09/23 10:08:19;;;;;;;4.63;1.02;;;15.00;99.90;;;;;;5100978;28;20043;-57
2023/09/23 10:10:49;;;;;;;12.82;1.63;;;15.10;99.90;;;;;;5112576;28;20043;-57
2023/09/23 10:13:19;;;;;;;7.18;1.45;;;15.10;99.90;;;;;;5111645;28;20046;-57
2023/09/23 10:15:47;;;;;;;9.93;2.25;;;15.10;99.90;;;;;;5112464;28;20490;-57
2023/09/23 10:18:19;;;;;;;9.07;2.20;;;15.00;99.90;;;;;;5111775;28;20505;-57
2023/09/23 10:20:51;;;;;;;7.50;1.58;;;15.00;99.90;;;;;;5104521;27;20040;-59
2023/09/23 10:23:20;;;;;;;7.00;1.30;;;15.00;99.90;;;;;;5111284;28;20044;-56
2023/09/23 10:25:50;;;;;;;5.05;1.30;;;15.00;99.90;;;;;;5112714;28;20402;-57
2023/09/23 10:28:21;;;;;;;4.85;1.13;;;15.00;99.90;;;;;;5112161;28;20619;-56
2023/09/23 10:30:57;;;;;;;6.75;1.20;;;15.10;99.90;;;;;;5111922;28;20047;-57
2023/09/23 10:33:26;;;;;;;7.25;1.73;;;15.20;99.90;;;;;;5110677;28;20495;-57
2023/09/23 10:35:54;;;;;;;5.80;0.70;;;15.30;99.90;;;;;;5110911;27;20447;-57
2023/09/23 10:38:23;;;;;;;8.68;1.80;;;15.30;99.90;;;;;;5121997;27;20047;-56
2023/09/23 10:40:52;;;;;;;3.65;0.90;;;15.30;99.90;;;;;;5132494;27;20043;-57
2023/09/23 10:43:23;;;;;;;11.30;1.27;;;15.30;99.90;;;;;;5117258;27;20043;-57
2023/09/23 10:45:53;;;;;;;6.38;1.20;;;15.20;99.90;;;;;;5124041;27;20036;-57
2023/09/23 10:48:20;;;;;;;7.93;1.27;;;15.20;99.90;;;;;;5110884;28;20071;-57
2023/09/23 10:50:51;;;;;;;4.78;1.00;;;15.30;99.90;;;;;;5102151;28;20304;-57
2023/09/23 10:53:23;;;;;;;4.22;1.17;;;15.40;99.90;;;;;;5115509;27;20290;-57
2023/09/23 10:55:51;;;;;;;9.32;1.27;;;15.60;99.90;;;;;;5131304;27;20047;-57
2023/09/23 10:58:19;;;;;;;12.27;1.75;;;15.70;99.90;;;;;;5121010;27;20044;-57
2023/09/23 11:00:48;;;;;;;6.68;1.38;;;15.80;99.90;;;;;;5111800;28;20066;-57
2023/09/23 11:03:19;;;;;;;5.20;1.17;;;15.80;99.90;;;;;;5110279;28;20047;-57
2023/09/23 11:05:48;;;;;;;5.80;1.30;;;15.80;99.90;;;;;;5113545;27;20040;-56
2023/09/23 11:08:19;;;;;;;4.00;1.00;;;15.80;99.90;;;;;;5100026;28;20051;-57
2023/09/23 11:10:59;;;;;;;7.45;1.13;;;15.70;99.90;;;;;;5111477;28;20052;-57
2023/09/23 11:13:27;;;;;;;4.97;0.85;;;15.70;99.90;;;;;;5116761;27;20050;-58
2023/09/23 11:15:55;;;;;;;3.13;0.88;;;15.80;99.90;;;;;;5122067;27;20054;-58
2023/09/23 11:18:25;;;;;;;6.15;1.20;;;15.90;99.90;;;;;;5106421;28;20387;-58
2023/09/23 11:20:53;;;;;;;7.50;1.33;;;16.10;99.90;;;;;;5092484;28;20048;-58
2023/09/23 11:23:26;;;;;;;2.80;0.82;;;16.10;99.90;;;;;;5096822;28;20062;-57
2023/09/23 11:25:54;;;;;;;3.72;1.00;;;16.10;99.90;;;;;;5110437;28;20032;-58
2023/09/23 11:28:24;;;;;;;6.88;0.80;;;15.90;99.90;;;;;;5110675;28;20533;-57
2023/09/23 11:30:54;;;;;;;7.78;1.52;;;15.80;99.90;;;;;;5110306;28;20050;-58
2023/09/23 11:33:22;;;;;;;5.63;1.40;;;15.60;99.90;;;;;;5115389;27;20039;-58
2023/09/23 11:35:49;;;;;;;5.68;0.80;;;15.50;99.90;;;;;;5121476;27;20052;-57
2023/09/23 11:38:18;;;;;;;7.90;1.70;;;15.40;99.90;;;;;;5099397;28;20504;-57
2023/09/23 11:40:47;;;;;;;6.88;1.20;;;15.30;99.90;;;;;;5110887;28;20058;-57
2023/09/23 11:43:15;;;;;;;6.93;1.38;;;15.20;99.90;;;;;;5109996;28;20395;-57
2023/09/23 11:45:43;;;;;;;3.33;1.02;;;15.40;99.90;;;;;;5110104;28;20063;-57
2023/09/23 11:48:11;;;;;;;4.20;1.00;;;15.80;99.90;;;;;;5117393;27;20047;-58
2023/09/23 11:50:39;;;;;;;5.05;1.00;;;16.40;99.90;;;;;;5129147;27;20039;-57
2023/09/23 11:53:07;;;;;;;4.57;0.90;;;17.10;99.90;;;;;;5093500;28;20518;-57
2023/09/23 11:55:35;;;;;;;2.72;0.93;;;17.70;99.90;;;;;;5092384;28;20039;-58
2023/09/23 11:58:06;;;;;;;4.13;1.30;;;18.10;99.90;;;;;;5109156;28;20055;-58
2023/09/23 12:00:34;;;;;;;2.92;0.90;;;18.20;99.90;;;;;;5093446;28;20051;-58
2023/09/23 12:03:02;;;;;;;5.53;1.33;;;18.20;99.90;;;;;;5091092;27;20048;-58
2023/09/23 12:05:29;;;;;;;5.18;1.00;;;18.20;99.90;;;;;;5120116;27;20058;-58
2023/09/23 12:07:59;;;;;;;4.53;1.13;;;18.20;99.90;;;;;;5098268;27;20504;-58
2023/09/23 12:10:29;;;;;;;4.07;0.90;;;18.00;99.90;;;;;;5099203;28;20494;-58
2023/09/23 12:13:02;;;;;;;4.45;1.00;;;17.90;99.90;;;;;;5100772;27;20043;-58
2023/09/23 12:15:34;;;;;;;5.68;0.98;;;17.70;99.90;;;;;;5112456;27;20062;-58
2023/09/23 12:18:03;;;;;;;3.97;1.40;;;17.60;99.90;;;;;;5122597;27;20423;-57
2023/09/23 12:20:32;;;;;;;4.90;1.50;;;17.30;99.90;;;;;;5105426;27;20426;-58
2023/09/23 12:23:00;;;;;;;6.72;1.50;;;17.10;99.90;;;;;;5093857;27;20047;-58
2023/09/23 12:25:29;;;;;;;4.10;1.05;;;16.90;99.90;;;;;;5091450;28;20047;-57
2023/09/23 12:27:56;;;;;;;5.35;1.25;;;16.90;99.90;;;;;;5102426;27;20040;-58
2023/09/23 12:30:24;;;;;;;6.97;1.73;;;16.90;99.90;;;;;;5089450;27;20052;-57
2023/09/23 12:32:52;;;;;;;7.10;1.40;;;17.10;99.90;;;;;;5096356;28;20044;-59
2023/09/23 12:35:19;;;;;;;5.25;1.55;;;17.20;99.90;;;;;;5096313;27;20211;-58
2023/09/23 12:37:48;;;;;;;5.43;1.60;;;17.30;99.90;;;;;;5097028;27;20050;-59
2023/09/23 12:40:16;;;;;;;5.25;1.58;;;17.40;99.90;;;;;;5106037;28;20043;-58
2023/09/23 12:42:43;;;;;;;8.88;1.48;;;17.40;99.90;;;;;;5107997;28;20048;-57
2023/09/23 12:45:13;;;;;;;8.15;1.42;;;17.30;99.90;;;;;;5108585;28;20060;-58
2023/09/23 12:47:41;;;;;;;9.23;1.60;;;17.20;99.90;;;;;;5109256;28;20040;-58
2023/09/23 12:50:24;;;;;;;3.92;1.50;;;17.10;99.90;;;;;;5109420;28;20055;-57
2023/09/23 12:52:53;;;;;;;8.80;1.27;;;16.90;99.90;;;;;;5097116;27;20417;-58
2023/09/23 12:55:21;;;;;;;8.25;1.42;;;16.80;99.90;;;;;;5108133;28;20055;-57
2023/09/23 12:57:52;;;;;;;3.83;1.50;;;16.60;99.90;;;;;;5108952;28;20051;-58